Time;durP1;ratioP1;P1;durP2;ratioP2;P2;SDS_P1;SDS_P2;PMS_P1;PMS_P2;Temp;Humidity;BMP_temperature;BMP_pressure;BME280_temperature;BME280_humidity;BME280_pressure;Samples;Min_cycle;Max_cycle;Signal;HPM_P1;HPM_P2
2022/02/25 00:00:23;;;;;;;34.58;19.30;;;;;;;1.22;91.91;100587.78;1718900;83;21209;-84
2022/02/25 00:03:29;;;;;;;35.85;18.48;;;;;;;1.21;92.21;100575.27;1719745;83;21235;-85
2022/02/25 00:06:35;;;;;;;31.02;17.92;;;;;;;1.23;92.39;100577.87;1718932;83;21188;-80
2022/02/25 00:09:40;;;;;;;27.90;17.40;;;;;;;1.24;92.42;100569.66;1720113;83;21208;-84
2022/02/25 00:12:47;;;;;;;34.03;18.37;;;;;;;1.27;92.37;100561.37;1718772;83;21211;-84
2022/02/25 00:15:57;;;;;;;33.13;17.92;;;;;;;1.27;92.41;100557.33;1718935;83;21235;-76
2022/02/25 00:19:02;;;;;;;30.48;18.23;;;;;;;1.26;92.37;100550.67;1719061;83;21216;-77
2022/02/25 00:22:08;;;;;;;34.40;19.17;;;;;;;1.25;92.36;100547.12;1718796;83;21216;-76
2022/02/25 00:25:15;;;;;;;32.48;19.07;;;;;;;1.28;92.38;100548.75;1718930;83;21183;-77
2022/02/25 00:28:21;;;;;;;33.23;18.20;;;;;;;1.28;92.28;100545.56;1718853;83;21243;-85
2022/02/25 00:31:27;;;;;;;35.33;18.27;;;;;;;1.27;92.23;100550.59;1718807;83;21224;-85
2022/02/25 00:34:33;;;;;;;34.18;19.45;;;;;;;1.29;92.21;100545.08;1720247;83;21196;-76
2022/02/25 00:37:39;;;;;;;32.78;19.20;;;;;;;1.25;92.29;100530.09;1718789;83;21211;-85
2022/02/25 00:40:46;;;;;;;30.92;19.30;;;;;;;1.23;92.55;100522.14;1718815;83;21789;-85
2022/02/25 00:43:51;;;;;;;33.65;20.15;;;;;;;1.20;92.77;100507.53;1718673;83;21240;-85
2022/02/25 00:46:57;;;;;;;31.90;17.92;;;;;;;1.20;93.03;100502.63;1718729;83;21808;-77
2022/02/25 00:50:03;;;;;;;34.58;18.87;;;;;;;1.19;93.27;100500.91;1718975;83;21192;-76
2022/02/25 00:53:10;;;;;;;33.00;18.60;;;;;;;1.17;93.46;100488.02;1718949;83;21808;-84
2022/02/25 00:56:16;;;;;;;27.17;17.77;;;;;;;1.18;93.60;100480.34;1719787;83;21216;-85
2022/02/25 00:59:23;;;;;;;33.20;18.55;;;;;;;1.21;93.59;100489.03;1720178;83;21334;-76
2022/02/25 01:02:29;;;;;;;32.67;17.95;;;;;;;1.21;93.46;100476.91;1719595;83;21215;-77
2022/02/25 01:05:35;;;;;;;32.40;18.05;;;;;;;1.18;93.52;100478.50;1720228;83;21287;-84
2022/02/25 01:08:41;;;;;;;28.17;17.32;;;;;;;1.17;93.66;100478.09;1720249;83;21181;-84
2022/02/25 01:11:48;;;;;;;28.83;17.95;;;;;;;1.18;93.76;100474.45;1719885;83;21755;-84
2022/02/25 01:14:53;;;;;;;31.20;18.40;;;;;;;1.20;93.78;100471.64;1720342;83;21213;-84
2022/02/25 01:17:59;;;;;;;58.02;31.50;;;;;;;1.22;93.85;100473.27;1719293;83;21240;-84
2022/02/25 01:21:06;;;;;;;36.13;21.07;;;;;;;1.25;93.80;100467.63;1719131;82;21314;-83
2022/02/25 01:24:11;;;;;;;28.83;18.45;;;;;;;1.25;93.68;100468.12;1718862;83;21291;-85
2022/02/25 01:27:17;;;;;;;29.82;19.40;;;;;;;1.23;93.68;100472.28;1695814;84;21734;-85
2022/02/25 01:30:21;;;;;;;32.90;19.23;;;;;;;1.21;93.76;100462.08;1696489;84;21320;-76
2022/02/25 01:33:28;;;;;;;32.67;18.98;;;;;;;1.20;93.83;100455.47;1694897;84;21205;-85
2022/02/25 01:36:33;;;;;;;32.50;20.08;;;;;;;1.18;94.13;100456.94;1696186;84;21324;-77
2022/02/25 01:39:39;;;;;;;30.75;18.98;;;;;;;1.17;94.32;100452.50;1696350;84;21245;-85
2022/02/25 01:43:02;;;;;;;39.50;24.30;;;;;;;1.18;94.47;100437.22;1695679;84;21332;-77
2022/02/25 01:46:07;;;;;;;31.70;22.05;;;;;;;1.14;94.62;100452.75;1696541;84;21293;-85
2022/02/25 01:49:12;;;;;;;34.80;20.52;;;;;;;1.13;94.84;100445.64;1696070;84;21332;-81
2022/02/25 01:52:24;;;;;;;35.50;20.70;;;;;;;1.11;95.18;100452.11;1695830;84;21786;-76
2022/02/25 01:55:29;;;;;;;31.02;19.52;;;;;;;1.07;95.50;100443.87;1696406;84;21178;-77
2022/02/25 01:58:34;;;;;;;34.65;19.32;;;;;;;1.01;95.79;100436.61;1696569;84;21332;-76
2022/02/25 02:01:39;;;;;;;33.20;19.92;;;;;;;0.99;96.07;100430.98;1696534;84;21304;-77
2022/02/25 02:04:44;;;;;;;31.57;18.98;;;;;;;0.97;96.38;100434.25;1696367;84;21323;-77
2022/02/25 02:07:51;;;;;;;31.30;18.80;;;;;;;0.92;96.78;100428.34;1694974;84;21256;-76
2022/02/25 02:10:56;;;;;;;32.50;19.60;;;;;;;0.86;97.19;100425.62;1696281;84;21320;-84
2022/02/25 02:14:04;;;;;;;31.80;18.40;;;;;;;0.80;97.83;100421.15;1696415;84;21869;-84
2022/02/25 02:17:10;;;;;;;28.95;19.35;;;;;;;0.74;98.35;100424.66;1695968;84;21213;-84
2022/02/25 02:20:14;;;;;;;31.90;19.00;;;;;;;0.72;98.87;100432.00;1695041;84;21312;-83
2022/02/25 02:23:21;;;;;;;30.92;18.35;;;;;;;0.72;99.32;100421.72;1708951;83;21336;-77
2022/02/25 02:26:27;;;;;;;36.60;17.45;;;;;;;0.75;99.73;100423.72;1708907;84;21296;-77
2022/02/25 02:29:33;;;;;;;31.15;19.00;;;;;;;0.76;100.00;100417.34;1710422;84;21240;-84
2022/02/25 02:32:38;;;;;;;33.33;17.85;;;;;;;0.72;100.00;100409.12;1709655;84;21236;-84
2022/02/25 02:35:44;;;;;;;30.17;18.35;;;;;;;0.73;100.00;100408.14;1710387;84;21762;-77
2022/02/25 02:38:50;;;;;;;31.48;17.15;;;;;;;0.72;100.00;100406.42;1709121;84;21177;-85
2022/02/25 02:41:55;;;;;;;31.95;19.10;;;;;;;0.73;100.00;100404.09;1710094;84;21315;-76
2022/02/25 02:45:01;;;;;;;31.15;18.42;;;;;;;0.74;100.00;100399.57;1710521;84;21745;-77
2022/02/25 02:48:06;;;;;;;32.75;17.30;;;;;;;0.73;100.00;100391.98;1709201;84;21347;-83
2022/02/25 02:51:12;;;;;;;33.75;17.87;;;;;;;0.71;100.00;100384.52;1709032;84;21181;-77
2022/02/25 02:54:19;;;;;;;29.87;17.60;;;;;;;0.71;100.00;100393.94;1709127;84;21192;-84
2022/02/25 02:57:20;;;;;;;25.25;16.70;;;;;;;0.70;100.00;100395.38;1709081;84;21323;-84
2022/02/25 03:00:15;;;;;;;25.00;15.18;;;;;;;0.71;100.00;100398.47;1710521;84;21821;-85
2022/02/25 03:03:00;;;;;;;28.12;16.12;;;;;;;0.73;100.00;100391.12;1710584;84;21873;-76
2022/02/25 03:05:58;;;;;;;24.92;15.35;;;;;;;0.72;100.00;100383.53;1710545;84;21157;-79
2022/02/25 03:09:03;;;;;;;25.37;14.47;;;;;;;0.73;100.00;100383.05;1710603;84;21328;-77
2022/02/25 03:12:09;;;;;;;26.57;15.70;;;;;;;0.74;100.00;100390.14;1710429;84;21295;-84
2022/02/25 03:15:14;;;;;;;27.00;15.32;;;;;;;0.75;100.00;100383.78;1710578;84;21331;-82
2022/02/25 03:18:20;;;;;;;25.27;15.78;;;;;;;0.74;100.00;100376.69;1710644;84;21208;-84
2022/02/25 03:21:26;;;;;;;25.43;15.45;;;;;;;0.73;100.00;100371.79;1710486;84;21326;-84
2022/02/25 03:24:31;;;;;;;27.27;14.98;;;;;;;0.71;100.00;100368.36;1695350;84;21311;-76
2022/02/25 03:27:37;;;;;;;26.30;15.83;;;;;;;0.69;100.00;100374.81;1695682;84;21819;-77
2022/02/25 03:30:42;;;;;;;25.75;15.28;;;;;;;0.68;100.00;100382.03;1696245;84;21304;-77
2022/02/25 03:33:47;;;;;;;23.70;14.85;;;;;;;0.69;100.00;100385.59;1696438;84;21746;-76
2022/02/25 03:36:52;;;;;;;23.25;14.70;;;;;;;0.71;100.00;100386.35;1696190;84;21347;-84
2022/02/25 03:39:57;;;;;;;24.55;16.02;;;;;;;0.72;100.00;100378.16;1695271;84;21276;-76
2022/02/25 03:43:02;;;;;;;26.25;14.50;;;;;;;0.74;100.00;100370.81;1695243;84;21328;-84
2022/02/25 03:46:07;;;;;;;25.70;14.58;;;;;;;0.78;100.00;100365.20;1696490;84;21310;-84
2022/02/25 03:49:13;;;;;;;23.30;13.35;;;;;;;0.77;100.00;100372.44;1696412;84;21359;-84
2022/02/25 03:52:18;;;;;;;22.10;13.88;;;;;;;0.77;100.00;100368.39;1696532;84;21339;-77
2022/02/25 03:55:23;;;;;;;25.15;15.40;;;;;;;0.76;100.00;100367.53;1696600;84;21304;-76
2022/02/25 03:58:29;;;;;;;24.20;14.38;;;;;;;0.79;100.00;100366.92;1696485;84;21878;-84
2022/02/25 04:01:33;;;;;;;22.58;14.50;;;;;;;0.78;100.00;100361.17;1696489;84;21315;-77
2022/02/25 04:04:39;;;;;;;21.82;12.82;;;;;;;0.82;100.00;100364.88;1696497;84;21311;-84
2022/02/25 04:07:47;;;;;;;22.80;14.00;;;;;;;0.87;100.00;100369.92;1696410;84;21308;-76
2022/02/25 04:10:54;;;;;;;21.00;13.28;;;;;;;0.88;100.00;100364.41;1696690;84;21297;-76
2022/02/25 04:14:00;;;;;;;23.25;13.83;;;;;;;0.92;100.00;100367.75;1696553;84;21174;-82
2022/02/25 04:17:04;;;;;;;27.87;14.18;;;;;;;0.92;100.00;100375.83;1696479;84;21335;-77
2022/02/25 04:20:10;;;;;;;20.52;14.10;;;;;;;0.89;100.00;100367.96;1696526;84;21838;-76
2022/02/25 04:23:15;;;;;;;23.77;14.70;;;;;;;0.87;100.00;100369.92;1696721;84;21849;-84
2022/02/25 04:26:20;;;;;;;20.52;13.43;;;;;;;0.87;100.00;100368.58;1722985;83;21275;-76
2022/02/25 04:29:27;;;;;;;20.75;13.78;;;;;;;0.87;100.00;100365.88;1722547;83;21911;-84
2022/02/25 04:32:33;;;;;;;22.93;14.85;;;;;;;0.88;100.00;100359.52;1722329;83;21321;-83
2022/02/25 04:35:39;;;;;;;25.88;13.72;;;;;;;0.82;100.00;100361.33;1723142;83;21295;-80
2022/02/25 04:38:47;;;;;;;21.25;13.75;;;;;;;0.79;100.00;100350.28;1721650;83;21152;-84
2022/02/25 04:41:52;;;;;;;24.87;13.85;;;;;;;0.78;100.00;100340.48;1722701;83;21286;-84
2022/02/25 04:44:58;;;;;;;22.75;13.05;;;;;;;0.77;100.00;100345.51;1721688;83;21338;-76
2022/02/25 04:48:05;;;;;;;25.85;16.15;;;;;;;0.76;100.00;100343.80;1721591;83;21359;-80
2022/02/25 04:51:11;;;;;;;23.20;14.20;;;;;;;0.79;100.00;100342.20;1721712;83;21284;-76
2022/02/25 04:54:16;;;;;;;22.35;13.32;;;;;;;0.81;100.00;100344.31;1723034;83;21761;-84
2022/02/25 04:57:22;;;;;;;22.30;13.25;;;;;;;0.81;100.00;100345.66;1722680;83;21188;-84
2022/02/25 05:00:29;;;;;;;20.40;12.93;;;;;;;0.82;100.00;100347.38;1722336;83;21294;-76
2022/02/25 05:03:34;;;;;;;23.30;13.60;;;;;;;0.84;100.00;100340.52;1722941;83;21844;-84
2022/02/25 05:06:40;;;;;;;25.00;15.08;;;;;;;0.84;100.00;100340.52;1722867;83;21365;-76
2022/02/25 05:09:45;;;;;;;21.45;14.38;;;;;;;0.85;100.00;100331.45;1722834;83;21302;-80
2022/02/25 05:12:52;;;;;;;23.65;13.50;;;;;;;0.85;100.00;100322.03;1722426;83;21303;-76
2022/02/25 05:22:45;;;;;;;21.42;13.03;;;;;;;0.76;100.00;100306.95;1722003;83;21322;-76
2022/02/25 05:25:50;;;;;;;24.05;14.28;;;;;;;0.76;100.00;100305.61;1705978;83;21945;-84
2022/02/25 05:28:56;;;;;;;21.95;12.75;;;;;;;0.75;100.00;100303.89;1653429;87;21374;-76
2022/02/25 05:32:02;;;;;;;22.07;13.70;;;;;;;0.75;100.00;100296.27;1680698;85;21224;-76
2022/02/25 05:35:09;;;;;;;19.42;13.35;;;;;;;0.76;100.00;100299.37;1682037;85;21316;-83
2022/02/25 05:38:14;;;;;;;19.80;12.18;;;;;;;0.76;100.00;100287.25;1680904;85;21750;-84
2022/02/25 05:41:20;;;;;;;21.25;13.18;;;;;;;0.74;100.00;100290.03;1681179;85;21641;-76
2022/02/25 05:44:26;;;;;;;20.90;12.10;;;;;;;0.72;100.00;100294.69;1680734;85;21216;-76
2022/02/25 05:47:31;;;;;;;23.00;12.88;;;;;;;0.71;100.00;100307.78;1681169;85;21244;-84
2022/02/25 05:50:36;;;;;;;19.92;13.05;;;;;;;0.70;100.00;100307.38;1681631;85;21800;-84
2022/02/25 05:53:41;;;;;;;19.73;12.70;;;;;;;0.70;100.00;100299.31;1682010;85;21208;-84
2022/02/25 05:56:46;;;;;;;19.70;12.35;;;;;;;0.72;100.00;100295.17;1681781;85;21338;-75
2022/02/25 05:59:52;;;;;;;20.35;13.05;;;;;;;0.71;100.00;100288.94;1680917;85;21268;-76
2022/02/25 06:03:01;;;;;;;20.68;12.63;;;;;;;0.69;100.00;100294.05;1680608;85;21583;-75
2022/02/25 06:06:07;;;;;;;18.42;11.63;;;;;;;0.67;100.00;100300.91;1681931;85;21153;-84
2022/02/25 06:09:13;;;;;;;19.60;12.65;;;;;;;0.67;100.00;100303.59;1680721;85;21667;-76
2022/02/25 06:12:19;;;;;;;20.68;12.53;;;;;;;0.71;100.00;100301.05;1680527;85;21208;-76
2022/02/25 06:15:25;;;;;;;18.75;11.43;;;;;;;0.72;100.00;100300.07;1682105;85;21169;-84
2022/02/25 06:18:34;;;;;;;18.05;12.30;;;;;;;0.72;100.00;100313.53;1681994;85;21294;-75
2022/02/25 06:21:40;;;;;;;19.57;12.90;;;;;;;0.74;100.00;100312.92;1681355;85;21370;-76
2022/02/25 06:24:46;;;;;;;18.50;12.47;;;;;;;0.72;100.00;100306.80;1682103;85;21291;-76
2022/02/25 06:27:52;;;;;;;17.98;11.88;;;;;;;0.71;100.00;100293.47;1680891;85;21336;-76
2022/02/25 06:30:58;;;;;;;18.07;12.05;;;;;;;0.68;100.00;100281.56;1681774;85;21326;-84
2022/02/25 06:34:03;;;;;;;18.20;11.45;;;;;;;0.68;100.00;100280.22;1682102;85;21354;-76
2022/02/25 06:37:08;;;;;;;17.20;11.38;;;;;;;0.67;100.00;100273.98;1682005;85;21334;-84
2022/02/25 06:40:13;;;;;;;19.98;11.85;;;;;;;0.66;100.00;100264.65;1682130;85;21304;-83
2022/02/25 06:43:19;;;;;;;15.48;11.93;;;;;;;0.66;100.00;100275.42;1662064;86;21326;-84
2022/02/25 06:46:24;;;;;;;17.17;11.60;;;;;;;0.67;100.00;100264.56;1662381;86;21294;-76
2022/02/25 06:49:29;;;;;;;17.80;11.83;;;;;;;0.68;100.00;100272.14;1661003;86;21326;-83
2022/02/25 06:52:34;;;;;;;19.10;12.55;;;;;;;0.68;100.00;100278.88;1660379;86;21219;-76
2022/02/25 06:55:41;;;;;;;19.77;12.23;;;;;;;0.67;100.00;100278.52;1663953;85;21196;-84
2022/02/25 06:58:47;;;;;;;16.32;11.12;;;;;;;0.67;100.00;100257.83;1689640;85;21252;-75
2022/02/25 07:01:53;;;;;;;20.20;11.53;;;;;;;0.69;100.00;100257.21;1689159;85;21842;-76
2022/02/25 07:04:58;;;;;;;17.02;11.60;;;;;;;0.70;100.00;100259.41;1689471;85;21180;-84
2022/02/25 07:08:03;;;;;;;19.92;12.13;;;;;;;0.71;100.00;100252.59;1688565;85;21366;-76
2022/02/25 07:11:09;;;;;;;16.70;12.05;;;;;;;0.75;100.00;100256.78;1689711;85;21592;-84
2022/02/25 07:14:15;;;;;;;16.07;12.03;;;;;;;0.80;100.00;100252.85;1688434;85;21248;-76
2022/02/25 07:17:22;;;;;;;15.30;11.10;;;;;;;0.85;100.00;100253.36;1689098;85;21342;-76
2022/02/25 07:20:27;;;;;;;17.07;12.68;;;;;;;0.84;100.00;100248.95;1688506;85;21306;-84
2022/02/25 07:23:34;;;;;;;19.35;12.82;;;;;;;0.82;100.00;100242.84;1688722;85;21931;-76
2022/02/25 07:26:40;;;;;;;21.85;12.33;;;;;;;0.85;100.00;100245.28;1690728;83;21220;-75
2022/02/25 07:29:46;;;;;;;17.82;12.60;;;;;;;0.86;100.00;100239.80;1743293;82;21342;-76
2022/02/25 07:32:52;;;;;;;15.50;11.45;;;;;;;0.89;100.00;100234.66;1758192;81;21917;-76
2022/02/25 07:35:57;;;;;;;15.88;13.00;;;;;;;0.92;100.00;100219.62;1742729;82;21299;-84
2022/02/25 07:39:03;;;;;;;16.87;13.00;;;;;;;0.96;100.00;100230.05;1758606;81;21879;-76
2022/02/25 07:42:09;;;;;;;17.57;11.43;;;;;;;1.00;100.00;100220.75;1743067;82;21251;-76
2022/02/25 07:45:17;;;;;;;16.42;11.22;;;;;;;1.07;100.00;100227.02;1759338;81;21314;-77
2022/02/25 07:48:23;;;;;;;13.83;10.23;;;;;;;1.11;100.00;100219.92;1742121;82;21243;-77
2022/02/25 07:51:30;;;;;;;14.78;10.72;;;;;;;1.20;100.00;100222.40;1759108;81;21318;-84
2022/02/25 07:54:35;;;;;;;16.77;11.50;;;;;;;1.25;100.00;100206.24;1743259;82;21868;-84
2022/02/25 07:57:40;;;;;;;14.43;10.30;;;;;;;1.29;100.00;100198.78;1729599;81;21306;-77
2022/02/25 08:00:47;;;;;;;14.23;11.33;;;;;;;1.33;100.00;100207.00;1728077;83;21760;-85
2022/02/25 08:03:53;;;;;;;13.38;9.88;;;;;;;1.35;100.00;100203.69;1727160;83;21850;-75
2022/02/25 08:06:59;;;;;;;15.68;10.35;;;;;;;1.37;100.00;100199.55;1726944;83;21255;-84
2022/02/25 08:10:05;;;;;;;13.90;10.50;;;;;;;1.40;100.00;100201.98;1728062;83;21366;-84
2022/02/25 08:13:12;;;;;;;13.65;10.95;;;;;;;1.41;100.00;100206.38;1753580;82;21270;-76
2022/02/25 08:16:18;;;;;;;14.03;10.82;;;;;;;1.43;100.00;100203.95;1755164;82;21300;-76
2022/02/25 08:19:24;;;;;;;15.68;10.60;;;;;;;1.50;100.00;100206.52;1755279;81;21285;-85
2022/02/25 08:22:30;;;;;;;12.60;9.83;;;;;;;1.54;100.00;100197.70;1754319;82;21874;-85
2022/02/25 08:25:39;;;;;;;14.38;10.82;;;;;;;1.52;100.00;100193.80;1754735;81;21823;-76
2022/02/25 08:28:46;;;;;;;12.75;10.38;;;;;;;1.56;100.00;100189.52;1747387;82;21687;-76
2022/02/25 08:31:52;;;;;;;13.10;9.98;;;;;;;1.56;100.00;100180.94;1742657;82;21306;-76
2022/02/25 08:34:57;;;;;;;13.53;10.43;;;;;;;1.60;100.00;100179.72;1742213;82;21171;-76
2022/02/25 08:38:03;;;;;;;13.35;10.05;;;;;;;1.67;100.00;100166.59;1741593;82;21729;-85
2022/02/25 08:41:08;;;;;;;14.15;11.03;;;;;;;1.73;100.00;100168.29;1743224;82;21274;-84
2022/02/25 08:44:14;;;;;;;14.50;9.68;;;;;;;1.82;100.00;100168.05;1743019;81;21181;-84
2022/02/25 08:47:19;;;;;;;13.35;9.70;;;;;;;1.93;100.00;100167.16;1731863;81;21754;-75
2022/02/25 08:50:26;;;;;;;14.90;11.45;;;;;;;1.95;100.00;100159.82;1713292;83;21344;-76
2022/02/25 08:53:32;;;;;;;14.83;10.68;;;;;;;1.96;100.00;100154.78;1712935;83;21208;-84
2022/02/25 08:56:38;;;;;;;14.30;11.68;;;;;;;1.94;100.00;100164.86;1713148;83;21326;-85
2022/02/25 08:59:44;;;;;;;14.05;11.68;;;;;;;1.95;100.00;100166.07;1712662;84;21593;-76
2022/02/25 09:02:49;;;;;;;18.23;11.75;;;;;;;1.98;100.00;100166.33;1748081;82;21844;-76
2022/02/25 09:05:53;;;;;;;17.00;12.18;;;;;;;2.01;100.00;100164.21;1733539;83;21189;-75
2022/02/25 09:08:59;;;;;;;18.07;12.70;;;;;;;1.99;100.00;100150.00;1749336;82;21165;-77
2022/02/25 09:12:05;;;;;;;15.23;12.55;;;;;;;1.98;100.00;100140.20;1697760;83;21354;-85
2022/02/25 09:15:12;;;;;;;16.70;12.50;;;;;;;2.00;100.00;100140.07;1682356;85;21353;-77
2022/02/25 09:18:18;;;;;;;15.15;11.65;;;;;;;2.00;100.00;100131.48;1718331;83;21343;-84
2022/02/25 09:21:24;;;;;;;17.17;13.80;;;;;;;1.99;100.00;100124.87;1718035;83;21770;-76
2022/02/25 09:24:29;;;;;;;17.20;13.55;;;;;;;1.99;100.00;100126.22;1717160;83;21326;-84
2022/02/25 09:27:35;;;;;;;19.23;15.03;;;;;;;2.04;100.00;100126.20;1731179;82;21204;-76
2022/02/25 09:30:41;;;;;;;19.05;14.23;;;;;;;2.11;100.00;100129.73;1747309;80;21307;-76
2022/02/25 09:33:46;;;;;;;21.65;15.10;;;;;;;2.15;100.00;100116.36;1737880;81;21749;-76
2022/02/25 09:36:51;;;;;;;18.23;13.55;;;;;;;2.18;100.00;100102.63;1717491;83;21410;-76
2022/02/25 09:39:57;;;;;;;17.77;13.70;;;;;;;2.23;100.00;100099.90;1731152;83;21409;-76
2022/02/25 09:43:03;;;;;;;20.52;16.12;;;;;;;2.30;100.00;100102.93;1717404;83;21368;-76
2022/02/25 09:46:11;;;;;;;21.25;15.13;;;;;;;2.38;100.00;100099.59;1720367;83;21187;-76
2022/02/25 09:49:18;;;;;;;20.43;15.03;;;;;;;2.42;100.00;100089.77;1718812;83;21182;-76
2022/02/25 09:52:25;;;;;;;19.62;15.13;;;;;;;2.46;100.00;100082.27;1717368;83;21208;-76
2022/02/25 09:55:40;;;;;;;24.02;16.87;;;;;;;2.50;100.00;100076.48;1719638;82;21307;-83
2022/02/25 09:58:44;;;;;;;22.50;15.70;;;;;;;2.57;100.00;100075.45;1738832;82;21766;-75
2022/02/25 10:01:49;;;;;;;20.17;15.15;;;;;;;2.61;100.00;100072.85;1738806;82;21323;-83
2022/02/25 10:04:56;;;;;;;25.57;17.62;;;;;;;2.63;100.00;100078.97;1737914;82;21355;-76
2022/02/25 10:08:02;;;;;;;21.73;15.83;;;;;;;2.62;100.00;100074.56;1737387;82;21200;-84
2022/02/25 10:11:08;;;;;;;23.25;15.78;;;;;;;2.58;100.00;100082.56;1727605;82;21347;-75
2022/02/25 10:14:18;;;;;;;21.48;15.88;;;;;;;2.50;100.00;100090.48;1704478;84;21320;-76
2022/02/25 10:17:29;;;;;;;19.75;14.18;;;;;;;2.48;100.00;100087.03;1704041;84;21873;-85
2022/02/25 10:20:36;;;;;;;22.35;16.23;;;;;;;2.44;100.00;100096.38;1703339;83;21178;-84
2022/02/25 10:23:44;;;;;;;26.37;15.25;;;;;;;2.37;100.00;100089.30;1705393;84;21297;-75
2022/02/25 10:26:50;;;;;;;25.35;17.32;;;;;;;2.36;100.00;100096.19;1705396;84;21313;-84
2022/02/25 10:30:00;;;;;;;22.40;15.83;;;;;;;2.35;100.00;100093.95;1705202;84;21823;-75
2022/02/25 10:33:06;;;;;;;22.13;16.42;;;;;;;2.35;100.00;100085.85;1718387;83;21775;-83
2022/02/25 10:36:11;;;;;;;25.62;16.60;;;;;;;2.36;100.00;100084.89;1718307;83;21862;-83
2022/02/25 10:39:17;;;;;;;25.75;17.67;;;;;;;2.39;100.00;100076.52;1718785;83;21170;-77
2022/02/25 10:42:26;;;;;;;26.90;17.50;;;;;;;2.40;100.00;100073.31;1718475;83;21323;-85
2022/02/25 10:45:39;;;;;;;26.80;16.55;;;;;;;2.40;100.00;100072.85;1718356;83;21305;-76
2022/02/25 10:48:46;;;;;;;30.05;18.65;;;;;;;2.42;100.00;100064.61;1718705;83;21300;-84
2022/02/25 10:51:54;;;;;;;30.82;22.20;;;;;;;2.42;100.00;100060.56;1718527;83;21336;-84
2022/02/25 10:55:00;;;;;;;34.40;23.45;;;;;;;2.44;100.00;100051.83;1718706;83;21367;-84
2022/02/25 10:58:06;;;;;;;30.50;20.35;;;;;;;2.44;100.00;100049.12;1717574;83;21427;-75
2022/02/25 11:01:16;;;;;;;32.42;19.98;;;;;;;2.49;100.00;100023.48;1717120;83;21186;-77
2022/02/25 11:04:22;;;;;;;28.85;19.87;;;;;;;2.54;100.00;100020.34;1718696;83;21340;-76
2022/02/25 11:07:28;;;;;;;27.20;19.52;;;;;;;2.54;100.00;100027.98;1717180;83;21221;-84
2022/02/25 11:10:39;;;;;;;33.33;21.73;;;;;;;2.55;100.00;100024.29;1718500;83;21284;-76
2022/02/25 11:13:45;;;;;;;29.85;19.90;;;;;;;2.56;100.00;100015.69;1718804;83;21280;-84
2022/02/25 11:16:51;;;;;;;27.93;18.77;;;;;;;2.58;100.00;100012.84;1698942;83;21201;-84
2022/02/25 11:19:56;;;;;;;29.87;20.05;;;;;;;2.61;100.00;100022.05;1718562;83;21296;-84
2022/02/25 11:23:08;;;;;;;26.75;18.50;;;;;;;2.65;100.00;100013.55;1717441;83;21865;-76
2022/02/25 11:26:15;;;;;;;27.75;20.30;;;;;;;2.69;100.00;100010.09;1717776;83;21873;-84
2022/02/25 11:29:22;;;;;;;36.35;21.00;;;;;;;2.69;100.00;100024.45;1718821;83;21178;-84
2022/02/25 11:32:29;;;;;;;28.77;20.52;;;;;;;2.71;100.00;100030.56;1709739;83;21298;-80
2022/02/25 11:35:38;;;;;;;29.48;21.42;;;;;;;2.73;100.00;100031.30;1705040;84;21846;-83
2022/02/25 11:38:47;;;;;;;29.35;21.42;;;;;;;2.78;100.00;100046.61;1706267;84;21221;-76
2022/02/25 11:42:03;;;;;;;25.35;18.75;;;;;;;2.82;100.00;100030.97;1706318;84;21312;-78
2022/02/25 11:45:28;;;;;;;32.08;20.85;;;;;;;2.90;100.00;100024.91;1706255;84;21289;-76
2022/02/25 11:48:47;;;;;;;28.30;20.17;;;;;;;2.91;100.00;100026.12;1706299;84;21333;-85
2022/02/25 11:51:59;;;;;;;30.68;21.10;;;;;;;2.94;100.00;100023.66;1703597;84;21329;-77
2022/02/25 11:55:05;;;;;;;30.57;20.10;;;;;;;2.97;100.00;100026.95;1704730;84;21966;-75
2022/02/25 11:58:56;;;;;;;27.75;17.35;;;;;;;3.00;100.00;100031.21;1705578;84;21317;-85
2022/02/25 12:02:18;;;;;;;23.57;17.60;;;;;;;3.00;100.00;100029.36;1705868;84;21265;-76
2022/02/25 12:05:24;;;;;;;25.92;18.77;;;;;;;2.92;100.00;100030.55;1706111;84;21186;-85
2022/02/25 12:08:32;;;;;;;23.20;15.78;;;;;;;2.85;100.00;100033.91;1704911;83;21194;-85
2022/02/25 12:11:42;;;;;;;21.15;15.15;;;;;;;2.75;100.00;100029.31;1706413;84;21285;-76
2022/02/25 12:15:26;;;;;;;27.30;18.50;;;;;;;2.70;100.00;100027.50;1704812;83;21660;-76
2022/02/25 12:18:45;;;;;;;29.67;20.52;;;;;;;2.69;100.00;100031.20;1706246;84;21198;-85
2022/02/25 12:21:52;;;;;;;30.10;21.82;;;;;;;2.68;100.00;100022.75;1706215;84;21361;-85
2022/02/25 12:25:01;;;;;;;33.55;24.65;;;;;;;2.71;100.00;100029.20;1706196;84;21313;-85
2022/02/25 12:28:31;;;;;;;31.50;23.75;;;;;;;2.72;100.00;100039.52;1705376;84;21317;-85
2022/02/25 12:31:54;;;;;;;30.90;21.75;;;;;;;2.67;100.00;100026.41;1706000;84;21332;-76
2022/02/25 12:35:01;;;;;;;36.50;24.47;;;;;;;2.62;100.00;100024.60;1694036;85;21673;-81
2022/02/25 12:38:06;;;;;;;40.63;27.13;;;;;;;2.53;100.00;100019.50;1656341;85;21240;-76
2022/02/25 12:41:27;;;;;;;30.62;21.80;;;;;;;2.50;100.00;100016.23;1706219;84;21818;-76
2022/02/25 12:44:37;;;;;;;35.28;24.55;;;;;;;2.52;100.00;100012.39;1693788;85;21864;-85
2022/02/25 12:47:42;;;;;;;38.65;27.25;;;;;;;2.52;100.00;100020.98;1705541;84;21312;-76
2022/02/25 12:50:51;;;;;;;26.95;20.95;;;;;;;2.48;100.00;100021.73;1673888;85;21354;-85
2022/02/25 12:54:02;;;;;;;;;;;;;;;2.44;100.00;100025.69;1708779;84;21315;-84
2022/02/25 12:57:12;;;;;;;27.50;19.67;;;;;;;2.43;100.00;100037.97;1677257;85;20275;-84
2022/02/25 13:00:17;;;;;;;34.43;23.27;;;;;;;2.34;100.00;100028.81;1694112;85;21334;-76
2022/02/25 13:03:22;;;;;;;30.45;22.00;;;;;;;2.28;100.00;100019.40;1706285;84;21307;-83
2022/02/25 13:06:35;;;;;;;30.23;23.32;;;;;;;2.28;100.00;100022.09;1694025;85;21889;-84
2022/02/25 13:09:41;;;;;;;29.18;22.32;;;;;;;2.30;100.00;100022.81;1693885;85;21290;-84
2022/02/25 13:12:46;;;;;;;32.00;24.15;;;;;;;2.32;100.00;100033.50;1720501;82;21171;-76
2022/02/25 13:15:52;;;;;;;33.20;25.50;;;;;;;2.29;100.00;100030.55;1739954;82;21671;-82
2022/02/25 13:18:58;;;;;;;36.75;28.55;;;;;;;2.25;100.00;100026.39;1739978;82;21175;-84
2022/02/25 13:22:30;;;;;;;30.95;24.45;;;;;;;2.19;100.00;100029.63;1740016;82;21338;-84
2022/02/25 13:25:33;;;;;;;;;;;;;;;2.17;100.00;100032.95;1742554;82;21147;-76
2022/02/25 13:28:38;;;;;;;27.07;21.35;;;;;;;2.14;100.00;100037.75;1740151;82;20277;-76
2022/02/25 13:31:36;;;;;;;30.85;23.67;;;;;;;2.09;100.00;100037.28;1740413;82;21223;-84
2022/02/25 13:34:42;;;;;;;25.62;19.27;;;;;;;2.08;100.00;100037.78;1736297;82;21310;-76
2022/02/25 13:38:02;;;;;;;32.80;25.08;;;;;;;2.08;100.00;100049.92;1722733;82;21187;-83
2022/02/25 13:41:15;;;;;;;35.20;27.58;;;;;;;2.03;100.00;100049.45;1737722;82;21851;-76
2022/02/25 13:44:21;;;;;;;30.80;22.87;;;;;;;1.98;100.00;100039.53;1737392;82;21203;-76
2022/02/25 13:54:33;;;;;;;43.20;28.60;;;;;;;1.91;100.00;100031.08;1741537;82;21339;-83
2022/02/25 13:57:42;;;;;;;36.38;25.82;;;;;;;1.90;100.00;100023.98;1736588;82;21205;-76
2022/02/25 14:00:50;;;;;;;31.48;23.62;;;;;;;1.91;100.00;100022.14;1737090;82;21859;-84
2022/02/25 14:03:56;;;;;;;26.55;21.00;;;;;;;1.90;100.00;100017.23;1738505;82;21271;-84
2022/02/25 14:07:05;;;;;;;29.90;22.02;;;;;;;1.88;100.00;100018.34;1737702;82;21199;-84
2022/02/25 14:10:27;;;;;;;36.75;26.82;;;;;;;1.86;100.00;100011.73;1737446;82;21156;-84
2022/02/25 14:13:38;;;;;;;49.25;32.20;;;;;;;1.85;100.00;100026.70;1724691;82;21824;-76
2022/02/25 14:16:49;;;;;;;33.30;23.18;;;;;;;1.83;100.00;100014.67;1736236;82;21258;-82
2022/02/25 14:20:30;;;;;;;34.73;22.45;;;;;;;1.82;100.00;100021.55;1737549;82;21199;-76
2022/02/25 14:23:36;;;;;;;32.75;21.87;;;;;;;1.83;100.00;100017.86;1737664;82;21278;-84
2022/02/25 14:26:42;;;;;;;33.20;24.00;;;;;;;1.81;100.00;100011.26;1737030;82;21310;-76